sensor_id;sensor_type;location;lat;lon;timestamp;P1;durP1;ratioP1;P2;durP2;ratioP2
17714;SDS011;8977;50.902;4.314;2024-02-14T00:00:57;4.70;;;3.63;;
17714;SDS011;8977;50.902;4.314;2024-02-14T00:03:24;4.67;;;3.80;;
17714;SDS011;8977;50.902;4.314;2024-02-14T00:05:51;4.87;;;3.53;;
17714;SDS011;8977;50.902;4.314;2024-02-14T00:08:18;6.00;;;3.40;;
17714;SDS011;8977;50.902;4.314;2024-02-14T00:10:45;6.37;;;3.67;;
17714;SDS011;8977;50.902;4.314;2024-02-14T00:13:13;5.33;;;4.33;;
17714;SDS011;8977;50.902;4.314;2024-02-14T00:15:43;6.13;;;3.83;;
17714;SDS011;8977;50.902;4.314;2024-02-14T00:18:12;7.10;;;3.90;;
17714;SDS011;8977;50.902;4.314;2024-02-14T00:20:40;6.93;;;4.00;;
17714;SDS011;8977;50.902;4.314;2024-02-14T00:23:07;6.10;;;4.17;;
17714;SDS011;8977;50.902;4.314;2024-02-14T00:25:34;6.07;;;4.53;;
17714;SDS011;8977;50.902;4.314;2024-02-14T00:28:01;6.23;;;3.97;;
17714;SDS011;8977;50.902;4.314;2024-02-14T00:30:28;8.10;;;4.77;;
17714;SDS011;8977;50.902;4.314;2024-02-14T00:32:56;6.93;;;4.87;;
17714;SDS011;8977;50.902;4.314;2024-02-14T00:35:24;7.70;;;4.87;;
17714;SDS011;8977;50.902;4.314;2024-02-14T00:37:51;7.87;;;4.90;;
17714;SDS011;8977;50.902;4.314;2024-02-14T00:40:18;7.87;;;4.50;;
17714;SDS011;8977;50.902;4.314;2024-02-14T00:42:45;7.67;;;4.70;;
17714;SDS011;8977;50.902;4.314;2024-02-14T00:45:12;9.93;;;5.57;;
17714;SDS011;8977;50.902;4.314;2024-02-14T00:47:39;8.53;;;4.83;;
17714;SDS011;8977;50.902;4.314;2024-02-14T00:50:06;7.60;;;4.73;;
17714;SDS011;8977;50.902;4.314;2024-02-14T00:52:35;5.87;;;4.57;;
17714;SDS011;8977;50.902;4.314;2024-02-14T00:55:02;9.23;;;5.00;;
17714;SDS011;8977;50.902;4.314;2024-02-14T00:57:29;6.90;;;4.90;;
17714;SDS011;8977;50.902;4.314;2024-02-14T00:59:56;9.87;;;4.97;;
17714;SDS011;8977;50.902;4.314;2024-02-14T01:02:24;7.43;;;4.90;;
17714;SDS011;8977;50.902;4.314;2024-02-14T01:04:52;9.30;;;5.00;;
17714;SDS011;8977;50.902;4.314;2024-02-14T01:07:19;8.90;;;5.03;;
17714;SDS011;8977;50.902;4.314;2024-02-14T01:09:47;9.10;;;4.73;;
17714;SDS011;8977;50.902;4.314;2024-02-14T01:12:15;8.60;;;5.07;;
17714;SDS011;8977;50.902;4.314;2024-02-14T01:14:42;9.07;;;4.63;;
17714;SDS011;8977;50.902;4.314;2024-02-14T01:17:09;8.07;;;4.60;;
17714;SDS011;8977;50.902;4.314;2024-02-14T01:19:37;10.07;;;4.50;;
17714;SDS011;8977;50.902;4.314;2024-02-14T01:22:04;8.30;;;4.90;;
17714;SDS011;8977;50.902;4.314;2024-02-14T01:24:31;9.13;;;5.20;;
17714;SDS011;8977;50.902;4.314;2024-02-14T01:26:59;7.53;;;5.00;;
17714;SDS011;8977;50.902;4.314;2024-02-14T01:29:27;6.90;;;4.43;;
17714;SDS011;8977;50.902;4.314;2024-02-14T01:31:54;7.53;;;4.60;;
17714;SDS011;8977;50.902;4.314;2024-02-14T01:34:21;8.30;;;4.90;;
17714;SDS011;8977;50.902;4.314;2024-02-14T01:36:49;7.33;;;4.80;;
17714;SDS011;8977;50.902;4.314;2024-02-14T01:39:16;7.63;;;5.33;;
17714;SDS011;8977;50.902;4.314;2024-02-14T01:41:46;7.70;;;4.47;;
17714;SDS011;8977;50.902;4.314;2024-02-14T01:44:15;8.47;;;4.87;;
17714;SDS011;8977;50.902;4.314;2024-02-14T01:46:42;7.53;;;4.80;;
17714;SDS011;8977;50.902;4.314;2024-02-14T01:49:09;7.47;;;4.30;;
17714;SDS011;8977;50.902;4.314;2024-02-14T01:51:37;7.27;;;4.90;;
17714;SDS011;8977;50.902;4.314;2024-02-14T01:54:07;10.73;;;5.37;;
17714;SDS011;8977;50.902;4.314;2024-02-14T01:56:36;5.67;;;4.17;;
17714;SDS011;8977;50.902;4.314;2024-02-14T01:59:03;4.93;;;4.40;;
17714;SDS011;8977;50.902;4.314;2024-02-14T02:01:32;5.83;;;4.07;;
17714;SDS011;8977;50.902;4.314;2024-02-14T02:03:59;6.13;;;4.20;;
17714;SDS011;8977;50.902;4.314;2024-02-14T02:06:27;7.07;;;4.53;;
17714;SDS011;8977;50.902;4.314;2024-02-14T02:08:55;5.40;;;4.00;;
17714;SDS011;8977;50.902;4.314;2024-02-14T02:11:24;5.30;;;4.27;;
17714;SDS011;8977;50.902;4.314;2024-02-14T02:13:51;4.70;;;4.20;;
17714;SDS011;8977;50.902;4.314;2024-02-14T02:16:18;4.73;;;4.03;;
17714;SDS011;8977;50.902;4.314;2024-02-14T02:18:48;5.20;;;4.30;;
17714;SDS011;8977;50.902;4.314;2024-02-14T02:21:15;5.43;;;4.10;;
17714;SDS011;8977;50.902;4.314;2024-02-14T02:23:46;4.90;;;4.40;;
17714;SDS011;8977;50.902;4.314;2024-02-14T02:26:13;4.60;;;4.20;;
17714;SDS011;8977;50.902;4.314;2024-02-14T02:28:40;4.93;;;4.17;;
17714;SDS011;8977;50.902;4.314;2024-02-14T02:31:07;4.27;;;3.87;;
17714;SDS011;8977;50.902;4.314;2024-02-14T02:33:35;4.83;;;4.33;;
17714;SDS011;8977;50.902;4.314;2024-02-14T02:36:02;5.60;;;4.10;;
17714;SDS011;8977;50.902;4.314;2024-02-14T02:38:31;6.20;;;4.33;;
17714;SDS011;8977;50.902;4.314;2024-02-14T02:40:59;6.30;;;4.57;;
17714;SDS011;8977;50.902;4.314;2024-02-14T02:43:26;4.20;;;3.80;;
17714;SDS011;8977;50.902;4.314;2024-02-14T02:45:53;6.27;;;4.07;;
17714;SDS011;8977;50.902;4.314;2024-02-14T02:48:23;5.87;;;4.03;;
17714;SDS011;8977;50.902;4.314;2024-02-14T02:50:50;5.70;;;4.43;;
17714;SDS011;8977;50.902;4.314;2024-02-14T02:53:18;5.10;;;4.57;;
17714;SDS011;8977;50.902;4.314;2024-02-14T02:55:45;4.87;;;4.47;;
17714;SDS011;8977;50.902;4.314;2024-02-14T02:58:13;8.53;;;4.57;;
17714;SDS011;8977;50.902;4.314;2024-02-14T03:00:41;5.20;;;4.03;;
17714;SDS011;8977;50.902;4.314;2024-02-14T03:03:08;5.73;;;4.37;;
17714;SDS011;8977;50.902;4.314;2024-02-14T03:05:35;5.00;;;4.40;;
17714;SDS011;8977;50.902;4.314;2024-02-14T03:08:04;6.03;;;4.87;;
17714;SDS011;8977;50.902;4.314;2024-02-14T03:10:32;5.60;;;4.77;;
17714;SDS011;8977;50.902;4.314;2024-02-14T03:12:59;9.80;;;4.87;;
17714;SDS011;8977;50.902;4.314;2024-02-14T03:15:28;5.90;;;4.73;;
17714;SDS011;8977;50.902;4.314;2024-02-14T03:17:56;5.13;;;4.37;;
17714;SDS011;8977;50.902;4.314;2024-02-14T03:20:23;5.43;;;4.30;;
17714;SDS011;8977;50.902;4.314;2024-02-14T03:22:50;7.30;;;4.40;;
17714;SDS011;8977;50.902;4.314;2024-02-14T03:25:17;5.27;;;4.57;;
17714;SDS011;8977;50.902;4.314;2024-02-14T03:27:44;6.10;;;4.37;;
17714;SDS011;8977;50.902;4.314;2024-02-14T03:30:16;7.07;;;4.67;;
17714;SDS011;8977;50.902;4.314;2024-02-14T03:32:44;7.00;;;4.23;;
17714;SDS011;8977;50.902;4.314;2024-02-14T03:35:11;7.37;;;4.80;;
17714;SDS011;8977;50.902;4.314;2024-02-14T03:37:39;5.93;;;5.27;;
17714;SDS011;8977;50.902;4.314;2024-02-14T03:40:07;6.90;;;5.07;;
17714;SDS011;8977;50.902;4.314;2024-02-14T03:42:35;7.20;;;4.80;;
17714;SDS011;8977;50.902;4.314;2024-02-14T03:45:05;8.10;;;5.40;;
17714;SDS011;8977;50.902;4.314;2024-02-14T03:47:33;6.67;;;4.97;;
17714;SDS011;8977;50.902;4.314;2024-02-14T03:50:01;5.27;;;4.20;;
17714;SDS011;8977;50.902;4.314;2024-02-14T03:52:29;6.90;;;4.60;;
17714;SDS011;8977;50.902;4.314;2024-02-14T03:54:59;6.50;;;5.07;;
17714;SDS011;8977;50.902;4.314;2024-02-14T03:57:26;5.47;;;4.43;;
17714;SDS011;8977;50.902;4.314;2024-02-14T03:59:53;6.60;;;4.80;;
17714;SDS011;8977;50.902;4.314;2024-02-14T04:02:21;6.30;;;4.60;;
17714;SDS011;8977;50.902;4.314;2024-02-14T04:04:48;5.87;;;5.37;;
17714;SDS011;8977;50.902;4.314;2024-02-14T04:07:17;5.83;;;4.80;;
17714;SDS011;8977;50.902;4.314;2024-02-14T04:09:44;6.37;;;4.80;;
17714;SDS011;8977;50.902;4.314;2024-02-14T04:12:11;6.37;;;5.10;;
17714;SDS011;8977;50.902;4.314;2024-02-14T04:14:38;6.47;;;5.07;;
17714;SDS011;8977;50.902;4.314;2024-02-14T04:17:05;8.13;;;4.93;;
17714;SDS011;8977;50.902;4.314;2024-02-14T04:19:33;6.00;;;5.00;;
17714;SDS011;8977;50.902;4.314;2024-02-14T04:22:00;6.33;;;5.10;;
17714;SDS011;8977;50.902;4.314;2024-02-14T04:24:29;7.03;;;5.03;;
17714;SDS011;8977;50.902;4.314;2024-02-14T04:26:56;7.53;;;5.20;;
17714;SDS011;8977;50.902;4.314;2024-02-14T04:29:23;8.00;;;5.23;;
17714;SDS011;8977;50.902;4.314;2024-02-14T04:31:49;6.43;;;5.60;;
17714;SDS011;8977;50.902;4.314;2024-02-14T04:34:17;6.83;;;5.23;;
17714;SDS011;8977;50.902;4.314;2024-02-14T04:36:44;5.93;;;5.20;;
17714;SDS011;8977;50.902;4.314;2024-02-14T04:39:11;7.87;;;5.63;;
17714;SDS011;8977;50.902;4.314;2024-02-14T04:41:40;6.57;;;5.20;;
17714;SDS011;8977;50.902;4.314;2024-02-14T04:44:07;7.93;;;5.67;;
17714;SDS011;8977;50.902;4.314;2024-02-14T04:46:34;10.00;;;5.90;;
17714;SDS011;8977;50.902;4.314;2024-02-14T04:49:03;7.00;;;5.67;;
17714;SDS011;8977;50.902;4.314;2024-02-14T04:51:29;5.47;;;4.97;;
17714;SDS011;8977;50.902;4.314;2024-02-14T04:53:57;6.33;;;5.27;;
17714;SDS011;8977;50.902;4.314;2024-02-14T04:56:24;7.83;;;6.20;;
17714;SDS011;8977;50.902;4.314;2024-02-14T04:58:53;6.80;;;5.60;;
17714;SDS011;8977;50.902;4.314;2024-02-14T05:01:21;7.17;;;5.70;;
17714;SDS011;8977;50.902;4.314;2024-02-14T05:03:48;8.03;;;6.03;;
17714;SDS011;8977;50.902;4.314;2024-02-14T05:06:15;5.83;;;5.03;;
17714;SDS011;8977;50.902;4.314;2024-02-14T05:08:42;6.30;;;5.27;;
17714;SDS011;8977;50.902;4.314;2024-02-14T05:11:08;7.47;;;5.33;;
17714;SDS011;8977;50.902;4.314;2024-02-14T05:13:35;7.00;;;5.40;;
17714;SDS011;8977;50.902;4.314;2024-02-14T05:16:05;7.90;;;5.97;;
17714;SDS011;8977;50.902;4.314;2024-02-14T05:18:34;7.87;;;5.63;;
17714;SDS011;8977;50.902;4.314;2024-02-14T05:21:01;8.90;;;6.07;;
17714;SDS011;8977;50.902;4.314;2024-02-14T05:23:30;7.50;;;5.27;;
17714;SDS011;8977;50.902;4.314;2024-02-14T05:25:57;8.87;;;6.03;;
17714;SDS011;8977;50.902;4.314;2024-02-14T05:28:24;6.67;;;5.43;;
17714;SDS011;8977;50.902;4.314;2024-02-14T05:30:51;9.93;;;5.90;;
17714;SDS011;8977;50.902;4.314;2024-02-14T05:33:20;8.03;;;5.50;;
17714;SDS011;8977;50.902;4.314;2024-02-14T05:35:47;8.27;;;6.10;;
17714;SDS011;8977;50.902;4.314;2024-02-14T05:38:14;7.73;;;5.90;;
17714;SDS011;8977;50.902;4.314;2024-02-14T05:40:41;9.13;;;5.63;;
17714;SDS011;8977;50.902;4.314;2024-02-14T05:43:09;8.40;;;5.93;;
17714;SDS011;8977;50.902;4.314;2024-02-14T05:45:36;6.67;;;5.50;;
17714;SDS011;8977;50.902;4.314;2024-02-14T05:48:03;7.43;;;5.43;;
17714;SDS011;8977;50.902;4.314;2024-02-14T05:50:32;7.67;;;5.27;;
17714;SDS011;8977;50.902;4.314;2024-02-14T05:52:59;7.37;;;5.50;;
17714;SDS011;8977;50.902;4.314;2024-02-14T05:55:26;7.70;;;5.27;;
17714;SDS011;8977;50.902;4.314;2024-02-14T05:57:53;7.13;;;5.30;;
17714;SDS011;8977;50.902;4.314;2024-02-14T06:00:22;6.13;;;5.30;;
17714;SDS011;8977;50.902;4.314;2024-02-14T06:02:50;6.90;;;4.73;;
17714;SDS011;8977;50.902;4.314;2024-02-14T06:05:17;6.37;;;5.43;;
17714;SDS011;8977;50.902;4.314;2024-02-14T06:07:46;5.07;;;4.57;;
17714;SDS011;8977;50.902;4.314;2024-02-14T06:10:13;7.97;;;5.17;;
17714;SDS011;8977;50.902;4.314;2024-02-14T06:12:40;7.50;;;5.10;;
17714;SDS011;8977;50.902;4.314;2024-02-14T06:15:08;6.20;;;4.17;;
17714;SDS011;8977;50.902;4.314;2024-02-14T06:17:35;5.47;;;4.97;;
17714;SDS011;8977;50.902;4.314;2024-02-14T06:20:02;7.73;;;5.10;;
17714;SDS011;8977;50.902;4.314;2024-02-14T06:22:32;7.67;;;4.97;;
17714;SDS011;8977;50.902;4.314;2024-02-14T06:25:00;5.57;;;4.47;;
17714;SDS011;8977;50.902;4.314;2024-02-14T06:27:30;7.63;;;4.87;;
17714;SDS011;8977;50.902;4.314;2024-02-14T06:29:57;8.00;;;5.00;;
17714;SDS011;8977;50.902;4.314;2024-02-14T06:32:24;6.33;;;4.80;;
17714;SDS011;8977;50.902;4.314;2024-02-14T06:34:51;7.93;;;5.17;;
17714;SDS011;8977;50.902;4.314;2024-02-14T06:37:18;7.50;;;5.07;;
17714;SDS011;8977;50.902;4.314;2024-02-14T06:39:46;7.40;;;5.47;;
17714;SDS011;8977;50.902;4.314;2024-02-14T06:42:15;9.13;;;4.77;;
17714;SDS011;8977;50.902;4.314;2024-02-14T06:44:42;8.20;;;4.53;;
17714;SDS011;8977;50.902;4.314;2024-02-14T06:47:09;6.77;;;5.33;;
17714;SDS011;8977;50.902;4.314;2024-02-14T06:49:36;9.87;;;5.20;;
17714;SDS011;8977;50.902;4.314;2024-02-14T06:52:03;6.43;;;4.77;;
17714;SDS011;8977;50.902;4.314;2024-02-14T06:54:30;12.90;;;5.50;;
17714;SDS011;8977;50.902;4.314;2024-02-14T06:56:57;9.27;;;5.37;;
17714;SDS011;8977;50.902;4.314;2024-02-14T06:59:27;7.70;;;5.00;;
17714;SDS011;8977;50.902;4.314;2024-02-14T07:01:54;7.07;;;4.83;;
17714;SDS011;8977;50.902;4.314;2024-02-14T07:04:21;6.77;;;4.53;;
17714;SDS011;8977;50.902;4.314;2024-02-14T07:06:50;5.83;;;4.60;;
17714;SDS011;8977;50.902;4.314;2024-02-14T07:09:18;9.73;;;4.67;;
17714;SDS011;8977;50.902;4.314;2024-02-14T07:11:45;7.23;;;4.57;;
17714;SDS011;8977;50.902;4.314;2024-02-14T07:14:12;6.07;;;4.20;;
17714;SDS011;8977;50.902;4.314;2024-02-14T07:16:40;6.80;;;4.93;;
17714;SDS011;8977;50.902;4.314;2024-02-14T07:19:07;11.33;;;5.27;;
17714;SDS011;8977;50.902;4.314;2024-02-14T07:21:34;7.50;;;4.77;;
17714;SDS011;8977;50.902;4.314;2024-02-14T07:24:03;10.20;;;4.30;;
17714;SDS011;8977;50.902;4.314;2024-02-14T07:26:30;8.90;;;5.00;;
17714;SDS011;8977;50.902;4.314;2024-02-14T07:28:57;8.30;;;4.97;;
17714;SDS011;8977;50.902;4.314;2024-02-14T07:31:24;6.80;;;4.73;;
17714;SDS011;8977;50.902;4.314;2024-02-14T07:33:56;8.20;;;4.57;;
17714;SDS011;8977;50.902;4.314;2024-02-14T07:36:23;8.00;;;4.77;;
17714;SDS011;8977;50.902;4.314;2024-02-14T07:38:50;7.50;;;4.90;;
17714;SDS011;8977;50.902;4.314;2024-02-14T07:41:17;8.67;;;4.90;;
17714;SDS011;8977;50.902;4.314;2024-02-14T07:43:44;6.37;;;4.77;;
17714;SDS011;8977;50.902;4.314;2024-02-14T07:46:11;8.00;;;4.80;;
17714;SDS011;8977;50.902;4.314;2024-02-14T07:48:42;8.27;;;5.20;;
17714;SDS011;8977;50.902;4.314;2024-02-14T07:51:10;8.87;;;5.00;;
17714;SDS011;8977;50.902;4.314;2024-02-14T07:53:37;9.13;;;4.80;;
17714;SDS011;8977;50.902;4.314;2024-02-14T07:56:04;8.20;;;4.73;;
17714;SDS011;8977;50.902;4.314;2024-02-14T07:58:31;8.27;;;5.07;;
17714;SDS011;8977;50.902;4.314;2024-02-14T08:00:58;10.80;;;5.07;;
17714;SDS011;8977;50.902;4.314;2024-02-14T08:03:25;7.97;;;4.77;;
17714;SDS011;8977;50.902;4.314;2024-02-14T08:05:52;10.40;;;5.57;;
17714;SDS011;8977;50.902;4.314;2024-02-14T08:08:20;8.20;;;5.03;;
17714;SDS011;8977;50.902;4.314;2024-02-14T08:10:50;9.33;;;5.70;;
17714;SDS011;8977;50.902;4.314;2024-02-14T08:13:17;8.23;;;4.97;;
17714;SDS011;8977;50.902;4.314;2024-02-14T08:15:44;7.30;;;5.53;;
17714;SDS011;8977;50.902;4.314;2024-02-14T08:18:11;9.87;;;5.87;;
17714;SDS011;8977;50.902;4.314;2024-02-14T08:20:38;11.73;;;5.73;;
17714;SDS011;8977;50.902;4.314;2024-02-14T08:23:06;8.57;;;5.27;;
17714;SDS011;8977;50.902;4.314;2024-02-14T08:25:34;9.87;;;5.77;;
17714;SDS011;8977;50.902;4.314;2024-02-14T08:28:01;7.17;;;5.33;;
17714;SDS011;8977;50.902;4.314;2024-02-14T08:30:28;13.17;;;6.23;;
17714;SDS011;8977;50.902;4.314;2024-02-14T08:32:56;12.37;;;6.33;;
17714;SDS011;8977;50.902;4.314;2024-02-14T08:35:23;13.10;;;7.13;;
17714;SDS011;8977;50.902;4.314;2024-02-14T08:37:49;13.00;;;6.33;;
17714;SDS011;8977;50.902;4.314;2024-02-14T08:40:16;9.73;;;6.43;;
17714;SDS011;8977;50.902;4.314;2024-02-14T08:42:45;14.33;;;6.93;;
17714;SDS011;8977;50.902;4.314;2024-02-14T08:45:12;15.03;;;6.83;;
17714;SDS011;8977;50.902;4.314;2024-02-14T08:47:39;14.80;;;6.57;;
17714;SDS011;8977;50.902;4.314;2024-02-14T08:50:09;14.70;;;7.50;;
17714;SDS011;8977;50.902;4.314;2024-02-14T08:52:36;11.07;;;6.63;;
17714;SDS011;8977;50.902;4.314;2024-02-14T08:55:04;11.37;;;7.20;;
17714;SDS011;8977;50.902;4.314;2024-02-14T08:57:33;14.67;;;7.07;;
17714;SDS011;8977;50.902;4.314;2024-02-14T09:00:01;12.03;;;6.63;;
17714;SDS011;8977;50.902;4.314;2024-02-14T09:02:29;11.53;;;6.83;;
17714;SDS011;8977;50.902;4.314;2024-02-14T09:04:56;12.30;;;6.90;;
17714;SDS011;8977;50.902;4.314;2024-02-14T09:07:23;9.67;;;6.30;;
17714;SDS011;8977;50.902;4.314;2024-02-14T09:09:50;15.13;;;6.60;;
17714;SDS011;8977;50.902;4.314;2024-02-14T09:12:16;11.83;;;6.80;;
17714;SDS011;8977;50.902;4.314;2024-02-14T09:14:43;14.70;;;7.43;;
17714;SDS011;8977;50.902;4.314;2024-02-14T09:17:11;13.33;;;6.77;;
17714;SDS011;8977;50.902;4.314;2024-02-14T09:19:38;11.97;;;6.40;;
17714;SDS011;8977;50.902;4.314;2024-02-14T09:22:05;12.73;;;7.70;;
17714;SDS011;8977;50.902;4.314;2024-02-14T09:24:32;11.30;;;6.93;;
17714;SDS011;8977;50.902;4.314;2024-02-14T09:26:59;9.87;;;6.57;;
17714;SDS011;8977;50.902;4.314;2024-02-14T09:29:27;13.53;;;6.67;;
17714;SDS011;8977;50.902;4.314;2024-02-14T09:31:54;10.00;;;6.80;;
17714;SDS011;8977;50.902;4.314;2024-02-14T09:34:22;10.83;;;6.47;;
17714;SDS011;8977;50.902;4.314;2024-02-14T09:36:50;10.47;;;6.47;;
17714;SDS011;8977;50.902;4.314;2024-02-14T09:39:18;10.97;;;6.40;;
17714;SDS011;8977;50.902;4.314;2024-02-14T09:41:46;11.53;;;6.13;;
17714;SDS011;8977;50.902;4.314;2024-02-14T09:44:17;12.77;;;6.20;;
17714;SDS011;8977;50.902;4.314;2024-02-14T09:46:44;11.07;;;6.47;;
17714;SDS011;8977;50.902;4.314;2024-02-14T09:49:12;7.40;;;5.33;;
17714;SDS011;8977;50.902;4.314;2024-02-14T09:51:44;6.53;;;5.77;;
17714;SDS011;8977;50.902;4.314;2024-02-14T09:54:12;11.97;;;6.17;;
17714;SDS011;8977;50.902;4.314;2024-02-14T09:56:39;8.57;;;6.40;;
17714;SDS011;8977;50.902;4.314;2024-02-14T09:59:06;9.53;;;6.20;;
17714;SDS011;8977;50.902;4.314;2024-02-14T10:01:34;9.07;;;6.00;;
17714;SDS011;8977;50.902;4.314;2024-02-14T10:04:01;8.33;;;5.57;;
17714;SDS011;8977;50.902;4.314;2024-02-14T10:06:28;7.57;;;4.97;;
17714;SDS011;8977;50.902;4.314;2024-02-14T10:08:57;5.57;;;4.83;;
17714;SDS011;8977;50.902;4.314;2024-02-14T10:11:24;6.27;;;5.33;;
17714;SDS011;8977;50.902;4.314;2024-02-14T10:13:52;7.83;;;5.33;;
17714;SDS011;8977;50.902;4.314;2024-02-14T10:16:22;6.73;;;4.53;;
17714;SDS011;8977;50.902;4.314;2024-02-14T10:18:50;7.67;;;5.27;;
17714;SDS011;8977;50.902;4.314;2024-02-14T10:21:17;5.30;;;4.77;;
17714;SDS011;8977;50.902;4.314;2024-02-14T10:23:44;5.67;;;4.67;;
17714;SDS011;8977;50.902;4.314;2024-02-14T10:26:13;5.90;;;4.57;;
17714;SDS011;8977;50.902;4.314;2024-02-14T10:28:40;5.00;;;4.50;;
17714;SDS011;8977;50.902;4.314;2024-02-14T10:31:09;5.83;;;4.83;;
17714;SDS011;8977;50.902;4.314;2024-02-14T10:33:36;6.23;;;4.43;;
17714;SDS011;8977;50.902;4.314;2024-02-14T10:36:04;4.20;;;3.80;;
17714;SDS011;8977;50.902;4.314;2024-02-14T10:38:34;4.90;;;4.40;;
17714;SDS011;8977;50.902;4.314;2024-02-14T10:41:01;5.10;;;4.27;;
17714;SDS011;8977;50.902;4.314;2024-02-14T10:43:30;5.43;;;4.73;;
17714;SDS011;8977;50.902;4.314;2024-02-14T10:45:58;5.17;;;4.20;;
17714;SDS011;8977;50.902;4.314;2024-02-14T10:48:31;5.70;;;5.00;;
17714;SDS011;8977;50.902;4.314;2024-02-14T10:51:04;5.73;;;4.90;;
17714;SDS011;8977;50.902;4.314;2024-02-14T10:53:35;6.23;;;4.87;;
17714;SDS011;8977;50.902;4.314;2024-02-14T10:56:07;4.80;;;4.30;;
17714;SDS011;8977;50.902;4.314;2024-02-14T10:58:36;5.73;;;4.60;;
17714;SDS011;8977;50.902;4.314;2024-02-14T11:01:03;6.80;;;4.40;;
17714;SDS011;8977;50.902;4.314;2024-02-14T11:03:32;5.47;;;4.30;;
17714;SDS011;8977;50.902;4.314;2024-02-14T11:06:01;6.33;;;4.30;;
17714;SDS011;8977;50.902;4.314;2024-02-14T11:08:28;4.67;;;3.93;;
17714;SDS011;8977;50.902;4.314;2024-02-14T11:10:58;5.70;;;4.27;;
17714;SDS011;8977;50.902;4.314;2024-02-14T11:13:26;4.47;;;4.07;;
17714;SDS011;8977;50.902;4.314;2024-02-14T11:15:57;5.23;;;3.80;;
17714;SDS011;8977;50.902;4.314;2024-02-14T11:18:26;5.23;;;4.17;;
17714;SDS011;8977;50.902;4.314;2024-02-14T11:20:54;4.63;;;4.07;;
17714;SDS011;8977;50.902;4.314;2024-02-14T11:23:22;7.87;;;4.43;;
17714;SDS011;8977;50.902;4.314;2024-02-14T11:25:58;5.17;;;4.20;;
17714;SDS011;8977;50.902;4.314;2024-02-14T11:28:28;4.60;;;4.10;;
17714;SDS011;8977;50.902;4.314;2024-02-14T11:30:59;5.07;;;3.73;;
17714;SDS011;8977;50.902;4.314;2024-02-14T11:33:28;4.97;;;4.47;;
17714;SDS011;8977;50.902;4.314;2024-02-14T11:35:55;4.70;;;4.17;;
17714;SDS011;8977;50.902;4.314;2024-02-14T11:38:24;5.17;;;4.33;;
17714;SDS011;8977;50.902;4.314;2024-02-14T11:40:53;4.73;;;4.00;;
17714;SDS011;8977;50.902;4.314;2024-02-14T11:43:21;5.00;;;4.10;;
17714;SDS011;8977;50.902;4.314;2024-02-14T11:45:49;5.07;;;4.33;;
17714;SDS011;8977;50.902;4.314;2024-02-14T11:48:18;6.90;;;4.10;;
17714;SDS011;8977;50.902;4.314;2024-02-14T11:50:46;5.67;;;4.17;;
17714;SDS011;8977;50.902;4.314;2024-02-14T11:53:14;5.60;;;4.70;;
17714;SDS011;8977;50.902;4.314;2024-02-14T11:55:44;4.83;;;4.43;;
17714;SDS011;8977;50.902;4.314;2024-02-14T11:58:12;6.17;;;4.43;;
17714;SDS011;8977;50.902;4.314;2024-02-14T12:00:39;5.17;;;4.07;;
17714;SDS011;8977;50.902;4.314;2024-02-14T12:03:07;7.03;;;4.87;;
17714;SDS011;8977;50.902;4.314;2024-02-14T12:05:38;6.70;;;4.93;;
17714;SDS011;8977;50.902;4.314;2024-02-14T12:08:06;6.27;;;5.20;;
17714;SDS011;8977;50.902;4.314;2024-02-14T12:10:34;6.60;;;5.03;;
17714;SDS011;8977;50.902;4.314;2024-02-14T12:13:04;6.30;;;4.67;;
17714;SDS011;8977;50.902;4.314;2024-02-14T12:15:36;6.67;;;4.87;;
17714;SDS011;8977;50.902;4.314;2024-02-14T12:18:04;5.93;;;4.80;;
17714;SDS011;8977;50.902;4.314;2024-02-14T12:20:31;6.67;;;4.70;;
17714;SDS011;8977;50.902;4.314;2024-02-14T12:23:00;8.83;;;4.97;;
17714;SDS011;8977;50.902;4.314;2024-02-14T12:25:27;9.30;;;5.57;;
17714;SDS011;8977;50.902;4.314;2024-02-14T12:27:54;6.63;;;4.90;;
17714;SDS011;8977;50.902;4.314;2024-02-14T12:30:23;6.63;;;5.03;;
17714;SDS011;8977;50.902;4.314;2024-02-14T12:32:59;8.03;;;4.97;;
17714;SDS011;8977;50.902;4.314;2024-02-14T12:35:33;7.13;;;5.50;;
17714;SDS011;8977;50.902;4.314;2024-02-14T12:38:02;6.40;;;5.10;;
17714;SDS011;8977;50.902;4.314;2024-02-14T12:40:34;7.30;;;4.80;;
17714;SDS011;8977;50.902;4.314;2024-02-14T12:43:01;8.37;;;5.63;;
17714;SDS011;8977;50.902;4.314;2024-02-14T12:45:30;9.53;;;5.27;;
17714;SDS011;8977;50.902;4.314;2024-02-14T12:47:57;7.07;;;5.47;;
17714;SDS011;8977;50.902;4.314;2024-02-14T12:50:24;5.63;;;5.07;;
17714;SDS011;8977;50.902;4.314;2024-02-14T12:52:51;6.70;;;5.40;;
17714;SDS011;8977;50.902;4.314;2024-02-14T12:55:19;6.30;;;5.00;;
17714;SDS011;8977;50.902;4.314;2024-02-14T12:57:48;6.07;;;4.83;;
17714;SDS011;8977;50.902;4.314;2024-02-14T13:00:15;6.43;;;5.10;;
17714;SDS011;8977;50.902;4.314;2024-02-14T13:02:42;7.67;;;4.70;;
17714;SDS011;8977;50.902;4.314;2024-02-14T13:05:09;7.17;;;5.33;;
17714;SDS011;8977;50.902;4.314;2024-02-14T13:07:36;7.67;;;5.27;;
17714;SDS011;8977;50.902;4.314;2024-02-14T13:10:03;9.37;;;5.13;;
17714;SDS011;8977;50.902;4.314;2024-02-14T13:12:32;6.57;;;4.77;;
17714;SDS011;8977;50.902;4.314;2024-02-14T13:14:59;5.73;;;4.63;;
17714;SDS011;8977;50.902;4.314;2024-02-14T13:17:26;8.07;;;4.50;;
17714;SDS011;8977;50.902;4.314;2024-02-14T13:19:54;6.07;;;4.40;;
17714;SDS011;8977;50.902;4.314;2024-02-14T13:22:22;6.73;;;4.10;;
17714;SDS011;8977;50.902;4.314;2024-02-14T13:24:48;5.17;;;4.23;;
17714;SDS011;8977;50.902;4.314;2024-02-14T13:27:15;6.40;;;3.90;;
17714;SDS011;8977;50.902;4.314;2024-02-14T13:29:44;6.30;;;4.13;;
17714;SDS011;8977;50.902;4.314;2024-02-14T13:32:11;6.93;;;4.43;;
17714;SDS011;8977;50.902;4.314;2024-02-14T13:34:38;5.30;;;4.07;;
17714;SDS011;8977;50.902;4.314;2024-02-14T13:37:05;5.40;;;4.10;;
17714;SDS011;8977;50.902;4.314;2024-02-14T13:39:34;6.63;;;3.73;;
17714;SDS011;8977;50.902;4.314;2024-02-14T13:42:01;4.67;;;3.70;;
17714;SDS011;8977;50.902;4.314;2024-02-14T13:44:28;4.90;;;3.70;;
17714;SDS011;8977;50.902;4.314;2024-02-14T13:46:57;5.63;;;3.60;;
17714;SDS011;8977;50.902;4.314;2024-02-14T13:49:24;5.57;;;3.70;;
17714;SDS011;8977;50.902;4.314;2024-02-14T13:51:52;9.17;;;3.83;;
17714;SDS011;8977;50.902;4.314;2024-02-14T13:54:18;6.13;;;3.40;;
17714;SDS011;8977;50.902;4.314;2024-02-14T13:56:46;6.77;;;4.27;;
17714;SDS011;8977;50.902;4.314;2024-02-14T13:59:14;4.43;;;3.30;;
17714;SDS011;8977;50.902;4.314;2024-02-14T14:01:41;5.33;;;4.10;;
17714;SDS011;8977;50.902;4.314;2024-02-14T14:04:09;4.87;;;3.10;;
17714;SDS011;8977;50.902;4.314;2024-02-14T14:06:37;6.33;;;3.37;;
17714;SDS011;8977;50.902;4.314;2024-02-14T14:09:04;3.53;;;3.10;;
17714;SDS011;8977;50.902;4.314;2024-02-14T14:11:32;4.67;;;3.50;;
17714;SDS011;8977;50.902;4.314;2024-02-14T14:13:59;4.27;;;3.00;;
17714;SDS011;8977;50.902;4.314;2024-02-14T14:16:26;5.67;;;3.00;;
17714;SDS011;8977;50.902;4.314;2024-02-14T14:18:53;4.47;;;2.80;;
17714;SDS011;8977;50.902;4.314;2024-02-14T14:21:22;6.13;;;3.17;;
17714;SDS011;8977;50.902;4.314;2024-02-14T14:23:49;4.63;;;2.97;;
17714;SDS011;8977;50.902;4.314;2024-02-14T14:26:15;5.50;;;3.40;;
17714;SDS011;8977;50.902;4.314;2024-02-14T14:28:42;4.13;;;2.97;;
17714;SDS011;8977;50.902;4.314;2024-02-14T14:31:09;5.10;;;2.90;;
17714;SDS011;8977;50.902;4.314;2024-02-14T14:33:37;5.50;;;3.07;;
17714;SDS011;8977;50.902;4.314;2024-02-14T14:36:04;3.70;;;2.93;;
17714;SDS011;8977;50.902;4.314;2024-02-14T14:38:35;4.40;;;2.70;;
17714;SDS011;8977;50.902;4.314;2024-02-14T14:41:02;4.97;;;2.93;;
17714;SDS011;8977;50.902;4.314;2024-02-14T14:43:29;6.00;;;3.10;;
17714;SDS011;8977;50.902;4.314;2024-02-14T14:45:56;4.13;;;2.80;;
17714;SDS011;8977;50.902;4.314;2024-02-14T14:48:23;5.80;;;3.30;;
17714;SDS011;8977;50.902;4.314;2024-02-14T14:50:52;6.73;;;3.53;;
17714;SDS011;8977;50.902;4.314;2024-02-14T14:53:20;4.60;;;2.97;;
17714;SDS011;8977;50.902;4.314;2024-02-14T14:55:53;4.57;;;3.37;;
17714;SDS011;8977;50.902;4.314;2024-02-14T14:58:21;5.47;;;3.67;;
17714;SDS011;8977;50.902;4.314;2024-02-14T15:00:52;4.70;;;3.20;;
17714;SDS011;8977;50.902;4.314;2024-02-14T15:03:20;4.67;;;3.67;;